Snohomish, Washington
Current Conditions -  °F | °C
As of 5:53 AM on Thursday 23 Oct 2014 (Local Time) from KPAE Reporting Station
Overcast Overcast  
Wind Chill: 52°   Ceiling: 3900
Heat Index: 52°   Visibility: 10mi
Dew Point: 47°   Wind: 8mph
Humidity: 83%   Direction: 160°SSE
Pressure: 29.71"   Gusts: NA
Location:  47.91°N, 122.09°W
Report Text: KPAE 231253Z AUTO 16007KT 10SM BKN039 OVC090 11/08 A2971 RMK AO2 SLP060 T01110083
Loading
Personal Weather Stations






























Interactive Weather Map
Tropical Storm Tracking
New forecast layout! Learn more

10-Day Weather Forecast

Advertisements
Track Severe Weather on mobile